Time;durP1;ratioP1;P1;durP2;ratioP2;P2;SDS_P1;SDS_P2;PMS_P1;PMS_P2;Temp;Humidity;BMP_temperature;BMP_pressure;BME280_temperature;BME280_humidity;BME280_pressure;Samples;Min_cycle;Max_cycle;Signal;HPM_P1;HPM_P2
2022/12/01 00:02:19;;;;;;;122.13;40.08;;;;;;;;;;5052699;28;20102;-66
2022/12/01 00:04:47;;;;;;;114.50;40.30;;;;;;;;;;5051082;28;20533;-67
2022/12/01 00:07:13;;;;;;;109.38;39.30;;;;;;;;;;5048984;28;20076;-67
2022/12/01 00:12:23;;;;;;;105.05;38.20;;;;;;;;;;5037141;28;20051;-67
2022/12/01 00:14:53;;;;;;;113.57;38.38;;;;;;;;;;5051404;28;20068;-66
2022/12/01 00:17:20;;;;;;;96.13;37.25;;;;;;;;;;5051559;28;20056;-66
2022/12/01 00:19:46;;;;;;;96.95;35.63;;;;;;;;;;5051469;28;20079;-67
2022/12/01 00:22:12;;;;;;;96.95;34.47;;;;;;;;;;5034957;28;20106;-67
2022/12/01 00:24:38;;;;;;;109.38;39.58;;;;;;;;;;5079920;28;20040;-67
2022/12/01 00:27:04;;;;;;;109.88;38.38;;;;;;;;;;5051189;28;20088;-66
2022/12/01 00:29:30;;;;;;;100.75;37.80;;;;;;;;;;5050787;28;20086;-67
2022/12/01 00:31:57;;;;;;;114.80;37.28;;;;;;;;;;5050867;28;20120;-67
2022/12/01 00:34:24;;;;;;;107.30;37.97;;;;;;;;;;5018054;28;20073;-67
2022/12/01 00:36:51;;;;;;;121.38;40.33;;;;;;;;;;5050951;28;20521;-66
2022/12/01 00:39:17;;;;;;;105.05;38.72;;;;;;;;;;5050842;28;20040;-66
2022/12/01 00:41:43;;;;;;;106.65;37.90;;;;;;;;;;5052300;28;20102;-66
2022/12/01 00:44:09;;;;;;;104.45;38.67;;;;;;;;;;5051226;28;20056;-67
2022/12/01 00:46:35;;;;;;;103.90;38.65;;;;;;;;;;5050441;28;20047;-66
2022/12/01 00:49:01;;;;;;;103.25;36.88;;;;;;;;;;5051004;28;20048;-66
2022/12/01 00:51:27;;;;;;;103.15;37.13;;;;;;;;;;5050429;28;20033;-66
2022/12/01 00:53:54;;;;;;;104.00;36.22;;;;;;;;;;5050785;28;20127;-67
2022/12/01 00:56:20;;;;;;;101.43;38.15;;;;;;;;;;5034189;28;20500;-66
2022/12/01 00:58:46;;;;;;;111.65;37.50;;;;;;;;;;5034544;28;20037;-66
2022/12/01 01:01:12;;;;;;;108.43;37.47;;;;;;;;;;5050810;28;20100;-66
2022/12/01 01:03:38;;;;;;;104.35;36.28;;;;;;;;;;5050564;28;20085;-67
2022/12/01 01:06:06;;;;;;;100.50;36.67;;;;;;;;;;5050651;28;20130;-67
2022/12/01 01:08:32;;;;;;;112.25;38.03;;;;;;;;;;5050263;28;20497;-66
2022/12/01 01:10:59;;;;;;;104.00;37.80;;;;;;;;;;5051746;28;20029;-66
2022/12/01 01:13:25;;;;;;;114.30;37.70;;;;;;;;;;5051649;28;20037;-67
2022/12/01 01:16:02;;;;;;;122.97;41.50;;;;;;;;;;5050472;28;20185;-67
2022/12/01 01:18:29;;;;;;;109.05;38.15;;;;;;;;;;5050549;28;20052;-67
2022/12/01 01:20:57;;;;;;;112.97;39.17;;;;;;;;;;5075242;28;20037;-67
2022/12/01 01:23:23;;;;;;;116.57;39.45;;;;;;;;;;5051732;28;20125;-67
2022/12/01 01:25:49;;;;;;;112.43;37.03;;;;;;;;;;5050321;28;20037;-66
2022/12/01 01:28:15;;;;;;;122.07;38.72;;;;;;;;;;5050360;28;20095;-66
2022/12/01 01:30:41;;;;;;;114.30;39.13;;;;;;;;;;5050185;28;20039;-66
2022/12/01 01:33:07;;;;;;;115.72;38.60;;;;;;;;;;5034040;28;20048;-67
2022/12/01 01:35:33;;;;;;;123.60;39.53;;;;;;;;;;5017549;28;20033;-66
2022/12/01 01:37:59;;;;;;;111.95;37.67;;;;;;;;;;5050311;28;20033;-67
2022/12/01 01:40:25;;;;;;;127.15;39.45;;;;;;;;;;5017253;28;20053;-66
2022/12/01 01:42:51;;;;;;;127.57;42.03;;;;;;;;;;5050097;28;20400;-67
2022/12/01 01:45:25;;;;;;;124.85;40.80;;;;;;;;;;5050123;28;20052;-68
2022/12/01 01:47:52;;;;;;;125.80;38.88;;;;;;;;;;5050538;28;20076;-66
2022/12/01 01:50:20;;;;;;;134.02;40.97;;;;;;;;;;5050486;28;20037;-67
2022/12/01 01:52:57;;;;;;;130.30;41.65;;;;;;;;;;5050033;28;20562;-66
2022/12/01 01:55:23;;;;;;;121.93;41.10;;;;;;;;;;5050447;28;20115;-66
2022/12/01 01:57:50;;;;;;;130.43;41.78;;;;;;;;;;5035040;28;20041;-66
2022/12/01 02:00:17;;;;;;;121.00;39.72;;;;;;;;;;5054161;28;20037;-67
2022/12/01 02:02:44;;;;;;;131.70;40.28;;;;;;;;;;5053700;28;20045;-67
2022/12/01 02:05:19;;;;;;;118.80;38.83;;;;;;;;;;5050948;28;20068;-66
2022/12/01 02:07:46;;;;;;;122.00;40.13;;;;;;;;;;5053267;28;20048;-67
2022/12/01 02:10:13;;;;;;;114.07;39.78;;;;;;;;;;5054735;28;20041;-66
2022/12/01 02:12:42;;;;;;;120.43;39.72;;;;;;;;;;5036863;28;20040;-67
2022/12/01 02:15:13;;;;;;;130.55;39.70;;;;;;;;;;5054957;28;20033;-66
2022/12/01 02:18:01;;;;;;;118.60;40.78;;;6.00;99.90;;;;;;5053381;28;20033;-66
2022/12/01 02:20:46;;;;;;;128.57;39.80;;;;;;;;;;5036683;28;20504;-66
2022/12/01 02:23:30;;;;;;;121.70;39.47;;;;;;;;;;5053290;28;20036;-67
2022/12/01 02:25:56;;;;;;;124.53;39.95;;;;;;;;;;5036849;28;20443;-66
2022/12/01 02:28:41;;;;;;;128.48;39.95;;;;;;;;;;5078122;28;20068;-66
2022/12/01 02:31:13;;;;;;;125.93;39.80;;;;;;;;;;5053061;28;20056;-66
2022/12/01 02:34:00;;;;;;;137.23;39.90;;;;;;;;;;5036716;28;20065;-66
2022/12/01 02:36:35;;;;;;;142.57;42.45;;;;;;;;;;5047238;28;20089;-67
2022/12/01 02:39:07;;;;;;;130.02;41.42;;;;;;;;;;5052768;28;20037;-66
2022/12/01 02:41:38;;;;;;;137.90;42.40;;;;;;;;;;5036357;28;20527;-66
2022/12/01 02:44:26;;;;;;;126.05;40.63;;;6.00;99.90;;;;;;5053351;28;20040;-67
2022/12/01 02:46:55;;;;;;;142.68;43.28;;;;;;;;;;5052983;28;20550;-66
2022/12/01 02:49:26;;;;;;;129.50;41.75;;;;;;;;;;5052850;28;20045;-66
2022/12/01 02:51:53;;;;;;;133.65;40.83;;;;;;;;;;5050879;28;20400;-67
2022/12/01 02:54:20;;;;;;;123.07;38.88;;;;;;;;;;5052887;28;20040;-66
2022/12/01 02:56:46;;;;;;;128.95;41.90;;;;;;;;;;5053094;28;20044;-66
2022/12/01 02:59:13;;;;;;;126.93;39.40;;;;;;;;;;5036117;28;20094;-67
2022/12/01 03:02:04;;;;;;;136.10;41.50;;;;;;;;;;5052935;28;20123;-66
2022/12/01 03:04:36;;;;;;;131.43;40.22;;;;;;;;;;5052330;28;20493;-66
2022/12/01 03:07:18;;;;;;;135.65;39.92;;;;;;;;;;5052565;28;20103;-66
2022/12/01 03:10:02;;;;;;;141.25;41.38;;;;;;;;;;5051604;28;20070;-66
2022/12/01 03:12:33;;;;;;;131.57;39.17;;;;;;;;;;5052310;28;20083;-66
2022/12/01 03:15:05;;;;;;;135.43;39.90;;;;;;;;;;5052574;28;20037;-66
2022/12/01 03:17:38;;;;;;;134.93;40.35;;;;;;;;;;5035867;28;20040;-66
2022/12/01 03:20:07;;;;;;;;;;;;;;;;;;5035982;28;20112;-66
2022/12/01 03:22:39;;;;;;;140.95;40.03;;;;;;;;;;5053584;28;19917;-66
2022/12/01 03:25:06;;;;;;;150.05;41.20;;;;;;;;;;5052586;28;20116;-69
2022/12/01 03:27:35;;;;;;;130.73;38.33;;;;;;;;;;5035954;28;20111;-70
2022/12/01 03:30:02;;;;;;;149.35;39.92;;;;;;;;;;5074981;28;20040;-70
2022/12/01 03:32:33;;;;;;;151.10;42.75;;;;;;;;;;5051872;28;20469;-70
2022/12/01 03:35:07;;;;;;;156.48;41.17;;;;;;;;;;5035591;28;20037;-70
2022/12/01 03:37:36;;;;;;;145.45;42.42;;;;;;;;;;5052144;28;20112;-70
2022/12/01 03:40:06;;;;;;;151.20;43.70;;;;;;;;;;5051751;28;20116;-70
2022/12/01 03:42:37;;;;;;;147.73;41.85;;;;;;;;;;5052043;28;20127;-70
2022/12/01 03:45:09;;;;;;;149.40;41.08;;;;;;;;;;5051864;28;20166;-70
2022/12/01 03:47:36;;;;;;;150.70;43.22;;;;;;;;;;5052016;28;20118;-70
2022/12/01 03:50:04;;;;;;;138.77;39.85;;;;;;;;;;5052092;28;20137;-71
2022/12/01 03:52:40;;;;;;;155.40;42.72;;;;;;;;;;5051867;28;20436;-70
2022/12/01 03:55:21;;;;;;;153.25;44.80;;;;;;;;;;5068312;28;20076;-70
2022/12/01 03:57:53;;;;;;;157.88;44.63;;;;;;;;;;5050735;28;20036;-70
2022/12/01 04:00:20;;;;;;;133.57;41.28;;;;;;;;;;5084328;28;20489;-70
2022/12/01 04:02:47;;;;;;;146.38;41.97;;;;;;;;;;5051550;28;20060;-70
2022/12/01 04:05:14;;;;;;;143.80;42.25;;;;;;;;;;5051352;28;20099;-70
2022/12/01 04:07:40;;;;;;;146.85;40.70;;;;;;;;;;5051710;28;20464;-70
2022/12/01 04:10:06;;;;;;;141.38;38.58;;;;;;;;;;5052399;28;20087;-70
2022/12/01 04:12:32;;;;;;;138.30;40.40;;;;;;;;;;5051457;28;20041;-70
2022/12/01 04:15:00;;;;;;;149.43;41.42;;;;;;;;;;5051176;28;20039;-70
2022/12/01 04:17:26;;;;;;;132.98;39.05;;;;;;;;;;5051088;28;20139;-70
2022/12/01 04:19:53;;;;;;;149.88;41.55;;;;;;;;;;5051193;28;20041;-70
2022/12/01 04:22:19;;;;;;;133.95;42.08;;;;;;;;;;5047675;28;20065;-70
2022/12/01 04:24:45;;;;;;;129.48;40.17;;;;;;;;;;5051386;28;20114;-71
2022/12/01 04:27:11;;;;;;;141.57;41.40;;;;;;;;;;5052252;28;20443;-70
2022/12/01 04:29:37;;;;;;;148.65;41.33;;;;;;;;;;5051349;28;20056;-70
2022/12/01 04:32:04;;;;;;;143.93;40.65;;;;;;;;;;5080130;28;20041;-70
2022/12/01 04:34:30;;;;;;;121.22;39.70;;;;;;;;;;5050746;28;20048;-71
2022/12/01 04:36:56;;;;;;;147.65;43.53;;;;;;;;;;5049222;28;20048;-70
2022/12/01 04:39:22;;;;;;;130.23;40.60;;;;;;;;;;5051123;28;20037;-70
2022/12/01 04:41:48;;;;;;;144.82;41.70;;;;;;;;;;5050631;28;20123;-71
2022/12/01 04:44:14;;;;;;;143.93;40.55;;;;;;;;;;5051042;28;20040;-71
2022/12/01 04:46:40;;;;;;;138.50;41.08;;;;;;;;;;5034376;28;20048;-70
2022/12/01 04:49:06;;;;;;;141.68;41.10;;;;;;;;;;5050887;28;20131;-71
2022/12/01 04:51:33;;;;;;;130.63;39.80;;;;;;;;;;5051032;28;20045;-70
2022/12/01 04:53:59;;;;;;;140.93;40.65;;;;;;;;;;5050609;28;20049;-71
2022/12/01 04:56:25;;;;;;;145.85;41.53;;;;;;;;;;5048301;28;20120;-70
2022/12/01 04:58:51;;;;;;;158.85;44.20;;;;;;;;;;5072663;28;20107;-70
2022/12/01 05:01:17;;;;;;;148.18;42.42;;;;;;;;;;5052349;28;20485;-70
2022/12/01 05:03:44;;;;;;;150.98;43.85;;;;;;;;;;5050857;28;20087;-70
2022/12/01 05:06:15;;;;;;;152.23;42.33;;;;;;;;;;5050185;28;20045;-70
2022/12/01 05:08:41;;;;;;;145.93;42.55;;;;;;;;;;5050743;28;20072;-71
2022/12/01 05:11:07;;;;;;;145.80;41.92;;;;;;;;;;5034005;28;20049;-70
2022/12/01 05:13:38;;;;;;;149.43;42.95;;;;;;;;;;5050738;28;20033;-70
2022/12/01 05:16:09;;;;;;;146.32;43.10;;;;;;;;;;5050935;28;20068;-70
2022/12/01 05:18:35;;;;;;;156.02;44.70;;;;;;;;;;5049320;28;20095;-71
2022/12/01 05:21:02;;;;;;;158.13;42.53;;;;;;;;;;5037106;28;20051;-70
2022/12/01 05:23:30;;;;;;;136.27;41.20;;;;;;;;;;5050352;28;20041;-70
2022/12/01 05:25:56;;;;;;;148.15;42.67;;;;;;;;;;5050753;28;20550;-70
2022/12/01 05:28:24;;;;;;;138.82;40.97;;;;;;;;;;5050393;28;20033;-71
2022/12/01 05:30:50;;;;;;;141.35;40.85;;;;;;;;;;5050465;28;20037;-70
2022/12/01 05:33:17;;;;;;;167.95;43.05;;;;;;;;;;5051726;28;20505;-71
2022/12/01 05:35:43;;;;;;;126.82;38.40;;;;;;;;;;5037872;28;20040;-70
2022/12/01 05:38:09;;;;;;;145.38;42.00;;;;;;;;;;5054585;28;20025;-70
2022/12/01 05:40:36;;;;;;;146.00;42.05;;;;;;;;;;5054610;28;20044;-70
2022/12/01 05:43:02;;;;;;;142.02;41.97;;;;;;;;;;5051734;28;20037;-71
2022/12/01 05:45:28;;;;;;;141.80;40.67;;;;;;;;;;5054422;28;20130;-70
2022/12/01 05:47:55;;;;;;;151.45;43.88;;;;;;;;;;5057687;28;20567;-71
2022/12/01 05:50:21;;;;;;;130.25;39.65;;;;;;;;;;5057700;28;20041;-71
2022/12/01 05:52:47;;;;;;;148.88;42.95;;;;;;;;;;5053873;28;20037;-71
2022/12/01 05:55:13;;;;;;;145.90;40.97;;;;;;;;;;5054307;28;20039;-71
2022/12/01 05:57:39;;;;;;;115.10;37.40;;;;;;;;;;5055598;28;20041;-71
2022/12/01 06:00:06;;;;;;;129.38;37.42;;;;;;;;;;5038581;28;20075;-71
2022/12/01 06:02:32;;;;;;;145.98;41.40;;;;;;;;;;5054870;28;20057;-72
2022/12/01 06:04:58;;;;;;;135.93;41.35;;;;;;;;;;5054560;28;20136;-71
2022/12/01 06:07:24;;;;;;;152.40;42.55;;;;;;;;;;5038249;28;20045;-71
2022/12/01 06:09:51;;;;;;;145.07;41.78;;;;;;;;;;5088486;28;20397;-71
2022/12/01 06:12:17;;;;;;;143.07;40.25;;;;;;;;;;5054515;28;20037;-71
2022/12/01 06:14:44;;;;;;;138.43;42.42;;;;;;;;;;5054554;28;20032;-70
2022/12/01 06:17:10;;;;;;;147.93;41.92;;;;;;;;;;5021633;28;20072;-70
2022/12/01 06:19:36;;;;;;;144.80;42.15;;;;;;;;;;5054665;28;20037;-70
2022/12/01 06:22:02;;;;;;;139.45;41.78;;;;;;;;;;5054337;28;20120;-70
2022/12/01 06:24:28;;;;;;;126.32;39.60;;;;;;;;;;5053873;28;20055;-70
2022/12/01 06:26:54;;;;;;;125.60;41.03;;;;;;;;;;5053546;28;20165;-70
2022/12/01 06:29:20;;;;;;;137.02;41.00;;;;;;;;;;5053640;28;20067;-71
2022/12/01 06:31:46;;;;;;;122.25;41.95;;;;;;;;;;5053229;28;20049;-73
2022/12/01 06:34:12;;;;;;;139.48;40.30;;;;;;;;;;5053878;28;20043;-71
2022/12/01 06:36:38;;;;;;;128.57;39.33;;;;;;;;;;5053001;28;20044;-71
2022/12/01 06:39:08;;;;;;;133.93;39.28;;;;;;;;;;5053651;28;20037;-72
2022/12/01 06:41:35;;;;;;;130.88;38.50;;;;;;;;;;5053842;28;20055;-71
2022/12/01 06:44:02;;;;;;;119.43;36.35;;;;;;;;;;5035985;28;20067;-71
2022/12/01 06:46:28;;;;;;;120.32;38.60;;;;;;;;;;5053778;28;20090;-71
2022/12/01 06:48:54;;;;;;;113.57;36.83;;;;;;;;;;5053237;28;20080;-71
2022/12/01 06:51:20;;;;;;;104.53;33.65;;;;;;;;;;5054285;28;20059;-72
2022/12/01 06:53:46;;;;;;;95.07;31.95;;;;;;;;;;5052764;28;20037;-71
2022/12/01 06:56:12;;;;;;;105.38;33.78;;;;;;;;;;5036585;28;20091;-71
2022/12/01 06:58:38;;;;;;;99.47;31.23;;;;;;;;;;5055376;28;20076;-71
2022/12/01 07:01:11;;;;;;;99.20;32.78;;;;;;;;;;5053760;28;20048;-71
2022/12/01 07:03:39;;;;;;;97.95;32.95;;;;;;;;;;5052395;28;20134;-70
2022/12/01 07:06:05;;;;;;;88.47;29.85;;;;;;;;;;5052639;28;20045;-71
2022/12/01 07:08:32;;;;;;;84.30;29.60;;;;;;;;;;5052742;28;20052;-71
2022/12/01 07:10:59;;;;;;;88.55;30.92;;;;;;;;;;5052575;28;20041;-70
2022/12/01 07:13:25;;;;;;;81.40;29.35;;;;;;;;;;5053819;28;20099;-70
2022/12/01 07:15:51;;;;;;;81.95;29.05;;;;;;;;;;5050822;28;20033;-71
2022/12/01 07:18:17;;;;;;;87.25;31.10;;;;;;;;;;5050488;28;20477;-71
2022/12/01 07:20:43;;;;;;;90.10;30.95;;;;;;;;;;5051107;28;20044;-70
2022/12/01 07:23:09;;;;;;;79.93;29.52;;;;;;;;;;5051731;28;20045;-71
2022/12/01 07:25:35;;;;;;;77.88;28.88;;;;;;;;;;5051432;28;20037;-70
2022/12/01 07:28:01;;;;;;;79.82;28.98;;;;;;;;;;5052004;28;20540;-70
2022/12/01 07:30:27;;;;;;;86.00;29.60;;;;;;;;;;5052351;28;20076;-70
2022/12/01 07:32:53;;;;;;;83.82;28.83;;;;;;;;;;5035436;28;20094;-70
2022/12/01 07:35:19;;;;;;;80.03;28.63;;;;;;;;;;5052137;28;20049;-70
2022/12/01 07:37:46;;;;;;;79.43;28.70;;;;;;;;;;5035837;28;20060;-70
2022/12/01 07:40:13;;;;;;;82.30;29.15;;;;;;;;;;5052059;28;20122;-73
2022/12/01 07:42:42;;;;;;;91.68;30.83;;;;;;;;;;5051914;28;20040;-75
2022/12/01 07:45:08;;;;;;;98.15;31.85;;;;;;;;;;5035182;28;20517;-70
2022/12/01 07:47:35;;;;;;;90.25;30.05;;;;;;;;;;5052055;28;20397;-74
2022/12/01 07:50:01;;;;;;;90.63;30.35;;;;;;;;;;5051971;28;20129;-70
2022/12/01 07:52:27;;;;;;;85.88;28.77;;;;;;;;;;5051110;28;20041;-70
2022/12/01 07:54:53;;;;;;;91.93;28.15;;;;;;;;;;5018322;28;20049;-70
2022/12/01 07:57:19;;;;;;;84.18;29.05;;;;;;;;;;5034987;28;20485;-70
2022/12/01 07:59:45;;;;;;;80.93;29.70;;;;;;;;;;5034956;28;20087;-70
2022/12/01 08:02:12;;;;;;;82.38;28.42;;;;;;;;;;5051618;28;20448;-70
2022/12/01 08:04:38;;;;;;;93.05;29.70;;;;;;;;;;5077188;28;20049;-70
2022/12/01 08:07:04;;;;;;;103.45;33.67;;;;;;;;;;5034828;28;20171;-70
2022/12/01 08:09:30;;;;;;;102.78;34.28;;;;;;;;;;5034754;28;20473;-70
2022/12/01 08:11:56;;;;;;;96.75;34.22;;;;;;;;;;5051029;28;20047;-70
2022/12/01 08:14:22;;;;;;;97.00;32.25;;;;;;;;;;5051530;28;20454;-71
2022/12/01 08:16:48;;;;;;;86.53;30.30;;;;;;;;;;5051873;28;20076;-70
2022/12/01 08:19:14;;;;;;;87.43;30.20;;;;;;;;;;5052522;28;20095;-71
2022/12/01 08:21:41;;;;;;;93.25;32.05;;;;;;;;;;5052090;28;20048;-70
2022/12/01 08:24:07;;;;;;;95.22;32.97;;;;;;;;;;5035745;28;20048;-69
2022/12/01 08:26:33;;;;;;;88.93;29.95;;;;;;;;;;5052257;28;20455;-70
2022/12/01 08:28:59;;;;;;;86.75;29.10;;;;;;;;;;5052125;28;20481;-70
2022/12/01 08:31:27;;;;;;;85.60;29.75;;;;;;;;;;5052208;28;20554;-69
2022/12/01 08:33:53;;;;;;;74.32;28.13;;;;;;;;;;5053297;28;20045;-69
2022/12/01 08:36:20;;;;;;;84.82;29.35;;;;;;;;;;5052020;28;20041;-70
2022/12/01 08:38:46;;;;;;;69.57;24.90;;;;;;;;;;5034810;28;20040;-70
2022/12/01 08:41:13;;;;;;;74.18;27.17;;;;;;;;;;5052047;28;20128;-70
2022/12/01 08:43:41;;;;;;;66.45;25.85;;;;;;;;;;5052175;28;20041;-70
2022/12/01 08:46:07;;;;;;;67.57;24.38;;;;;;;;;;5052099;28;20095;-70
2022/12/01 08:48:34;;;;;;;74.18;24.80;;;;;;;;;;5052196;28;20064;-70
2022/12/01 08:51:04;;;;;;;67.00;25.17;;;;;;;;;;5019061;28;20037;-69
2022/12/01 08:53:31;;;;;;;62.20;23.77;;;;;;;;;;5052086;28;20059;-69
2022/12/01 08:56:05;;;;;;;57.67;23.02;;;;;;;;;;5035422;28;20045;-70
2022/12/01 08:58:31;;;;;;;54.65;22.48;;;;;;;;;;5053900;28;20041;-70
2022/12/01 09:01:04;;;;;;;65.35;23.88;;;;;;;;;;5052098;28;20048;-70
2022/12/01 09:03:31;;;;;;;55.85;21.23;;;;;;;;;;5051718;28;20045;-70
2022/12/01 09:06:01;;;;;;;48.35;20.00;;;;;;;;;;5049533;28;20049;-69
2022/12/01 09:08:30;;;;;;;55.88;20.15;;;;;;;;;;5051039;28;20134;-70
2022/12/01 09:10:56;;;;;;;48.20;18.45;;;;;;;;;;5052993;28;20041;-70
2022/12/01 09:13:22;;;;;;;50.28;20.02;;;;;;;;;;5051585;28;20041;-70
2022/12/01 09:15:59;;;;;;;48.58;19.13;;;;;;;;;;5035293;28;20064;-70
2022/12/01 09:18:25;;;;;;;52.88;20.45;;;;;;;;;;5052855;28;20054;-70
2022/12/01 09:20:51;;;;;;;48.20;18.33;;;;;;;;;;5035422;28;20048;-69
2022/12/01 09:23:17;;;;;;;45.97;19.48;;;;;;;;;;5052780;28;20041;-69
2022/12/01 09:25:44;;;;;;;40.58;16.40;;;;;;;;;;5051848;28;20045;-70
2022/12/01 09:28:10;;;;;;;47.17;18.67;;;;;;;;;;5051642;28;20041;-70
2022/12/01 09:30:36;;;;;;;43.17;18.75;;;;;;;;;;5051879;28;20124;-70
2022/12/01 09:33:02;;;;;;;42.55;17.52;;;;;;;;;;5051414;28;20044;-70
2022/12/01 09:35:30;;;;;;;49.63;18.30;;;;;;;;;;5051486;28;20045;-70
2022/12/01 09:37:56;;;;;;;42.13;18.13;;;;;;;;;;5051713;28;20032;-70
2022/12/01 09:40:29;;;;;;;49.95;18.17;;;;;;;;;;5052574;28;20486;-70
2022/12/01 09:42:56;;;;;;;43.08;17.90;;;;;;;;;;5051189;28;20094;-70
2022/12/01 09:45:27;;;;;;;38.60;16.65;;;;;;;;;;5051498;28;20041;-71
2022/12/01 09:47:54;;;;;;;41.60;17.00;;;;;;;;;;5051363;28;20049;-71
2022/12/01 09:50:24;;;;;;;42.13;17.50;;;;;;;;;;5051382;28;20048;-71
2022/12/01 09:52:53;;;;;;;40.90;17.48;;;;;;;;;;5034447;28;20400;-70
2022/12/01 09:55:20;;;;;;;34.17;15.15;;;;;;;;;;5051466;28;20146;-70
2022/12/01 09:57:48;;;;;;;36.38;15.40;;;;;;;;;;5034585;28;20041;-71
2022/12/01 10:00:22;;;;;;;38.13;16.20;;;;;;;;;;5034849;28;20041;-70
2022/12/01 10:03:26;;;;;;;36.47;14.70;;;;;;;;;;5050990;28;20128;-70
2022/12/01 10:05:58;;;;;;;41.80;16.48;;;;;;;;;;5013562;28;20053;-70
2022/12/01 10:08:26;;;;;;;37.00;14.93;;;;;;;;;;5013494;28;20081;-70
2022/12/01 10:10:55;;;;;;;37.97;14.73;;;;;;;;;;5032428;28;20052;-74
2022/12/01 10:13:25;;;;;;;34.45;15.00;;;;;;;;;;5048856;28;20033;-71
2022/12/01 10:15:52;;;;;;;35.05;15.57;;;;;;;;;;5049679;28;20048;-72
2022/12/01 10:18:24;;;;;;;34.83;13.77;;;;;;;;;;5050422;28;20218;-71
2022/12/01 10:21:02;;;;;;;37.80;15.35;;;;;;;;;;5051958;28;20072;-71
2022/12/01 10:23:31;;;;;;;34.42;15.27;;;;;;;;;;5052585;28;20057;-71
2022/12/01 10:25:58;;;;;;;36.83;14.63;;;;;;;;;;5053613;28;20040;-71
2022/12/01 10:28:42;;;;;;;34.42;15.27;;;;;;;;;;5055157;28;20037;-72
2022/12/01 10:31:35;;;;;;;35.13;14.70;;;;;;;;;;5034497;28;20045;-71
2022/12/01 10:34:16;;;;;;;34.13;15.38;;;;;;;;;;5077434;28;20102;-71
2022/12/01 10:36:42;;;;;;;30.50;13.93;;;;;;;;;;5054415;28;20404;-71
2022/12/01 10:39:13;;;;;;;32.13;14.63;;;;;;;;;;5054300;28;20493;-72
2022/12/01 10:41:39;;;;;;;35.75;14.95;;;;;;;;;;5054341;28;20041;-71
2022/12/01 10:44:06;;;;;;;31.77;13.98;;;;;;;;;;5071686;28;20512;-72
2022/12/01 10:46:37;;;;;;;36.25;14.60;;;;;;;;;;5053590;28;20649;-71
2022/12/01 10:49:07;;;;;;;36.33;15.77;;;;;;;;;;5059989;28;20033;-72
2022/12/01 10:51:45;;;;;;;33.05;16.08;;;;;;;;;;5055321;28;20073;-72
2022/12/01 10:54:11;;;;;;;31.45;14.93;;;;;;;;;;5054686;28;20044;-71
2022/12/01 10:56:39;;;;;;;38.83;14.73;;;;;;;;;;5053840;28;20178;-71
2022/12/01 10:59:16;;;;;;;32.97;14.70;;;;;;;;;;5054457;28;20342;-71
2022/12/01 11:01:46;;;;;;;32.88;14.52;;;;;;;;;;5055545;28;20127;-72
2022/12/01 11:04:44;;;;;;;34.53;15.15;;;7.40;99.90;;;;;;5059041;28;20056;-72
2022/12/01 11:07:16;;;;;;;33.03;14.35;;;;;;;;;;5063022;28;20048;-71
2022/12/01 11:09:44;;;;;;;33.80;14.63;;;;;;;;;;5062229;28;20033;-72
2022/12/01 11:12:12;;;;;;;28.00;12.90;;;;;;;;;;5053882;28;20045;-71
2022/12/01 11:14:44;;;;;;;28.55;12.75;;;;;;;;;;5054575;28;20497;-72
2022/12/01 11:17:15;;;;;;;29.55;13.38;;;;;;;;;;5053996;28;21301;-71
2022/12/01 11:19:41;;;;;;;29.23;13.30;;;;;;;;;;5053862;28;20041;-71
2022/12/01 11:22:22;;;;;;;35.45;13.10;;;;;;;;;;5036989;28;20548;-71
2022/12/01 11:24:51;;;;;;;27.10;12.15;;;;;;;;;;5053382;28;20049;-71
2022/12/01 11:27:19;;;;;;;30.63;12.93;;;;;;;;;;5035824;28;20493;-71
2022/12/01 11:29:46;;;;;;;30.17;13.02;;;;;;;;;;5052858;28;20091;-71
2022/12/01 11:32:17;;;;;;;29.90;13.25;;;;;;;;;;5052356;28;20061;-71
2022/12/01 11:34:48;;;;;;;33.00;13.27;;;;;;;;;;5052949;28;20041;-72
2022/12/01 11:37:16;;;;;;;32.55;13.52;;;;;;;;;;5052455;28;20075;-71
2022/12/01 11:39:44;;;;;;;34.90;14.68;;;;;;;;;;5052442;28;20033;-71
2022/12/01 11:42:13;;;;;;;30.42;13.52;;;;;;;;;;5052270;28;20036;-72
2022/12/01 11:44:40;;;;;;;37.72;14.38;;;;;;;;;;5050623;28;20339;-72
2022/12/01 11:47:13;;;;;;;38.35;14.80;;;;;;;;;;5054155;28;20105;-72
2022/12/01 11:49:40;;;;;;;29.35;13.02;;;;;;;;;;5057717;28;20124;-71
2022/12/01 11:52:21;;;;;;;33.22;14.45;;;;;;;;;;5052930;28;20044;-72
2022/12/01 11:55:06;;;;;;;33.75;14.40;;;;;;;;;;5039085;28;20101;-72
2022/12/01 11:57:32;;;;;;;28.75;12.98;;;;;;;;;;5053867;28;20041;-71
2022/12/01 11:59:58;;;;;;;28.73;13.48;;;;;;;;;;5053021;28;20040;-71
2022/12/01 12:02:54;;;;;;;26.60;12.40;;;;;;;;;;5035986;28;20047;-72
2022/12/01 12:05:31;;;;;;;29.17;12.18;;;;;;;;;;5015221;28;20048;-72
2022/12/01 12:08:00;;;;;;;28.58;12.43;;;;;;;;;;5045485;28;20067;-71
2022/12/01 12:10:30;;;;;;;24.30;10.82;;;;;;;;;;5053920;28;20458;-66
2022/12/01 12:13:22;;;;;;;24.73;10.98;;;7.70;99.90;;;;;;5053368;28;20042;-67
2022/12/01 12:16:01;;;;;;;22.48;10.50;;;;;;;;;;5029378;28;20136;-66
2022/12/01 12:18:27;;;;;;;21.38;8.60;;;;;;;;;;5051807;28;20029;-66
2022/12/01 12:21:05;;;;;;;23.13;10.15;;;;;;;;;;5052256;28;20047;-67
2022/12/01 12:23:40;;;;;;;21.20;10.43;;;;;;;;;;5051962;28;20037;-67
2022/12/01 12:26:15;;;;;;;23.05;10.55;;;;;;;;;;5052341;28;20048;-66
2022/12/01 12:28:41;;;;;;;27.80;10.88;;;;;;;;;;5049799;28;20102;-67
2022/12/01 12:31:11;;;;;;;23.80;12.15;;;;;;;;;;5036107;28;20041;-67
2022/12/01 12:33:37;;;;;;;28.55;11.45;;;;;;;;;;5035664;28;20222;-67
2022/12/01 12:36:03;;;;;;;27.42;11.30;;;;;;;;;;5052605;28;20041;-67
2022/12/01 12:38:47;;;;;;;27.63;11.75;;;;;;;;;;5051470;28;20124;-67
2022/12/01 12:41:20;;;;;;;26.58;11.43;;;;;;;;;;5015738;28;20048;-67
2022/12/01 12:43:53;;;;;;;30.65;12.73;;;;;;;;;;5049428;28;20085;-67
2022/12/01 12:46:23;;;;;;;29.55;13.35;;;;;;;;;;5035156;28;20033;-67
2022/12/01 12:48:49;;;;;;;25.20;12.73;;;;;;;;;;5034321;28;20044;-67
2022/12/01 12:51:15;;;;;;;29.23;13.18;;;;;;;;;;5051118;28;20032;-68
2022/12/01 12:53:47;;;;;;;25.27;10.93;;;;;;;;;;5034590;28;20045;-68
2022/12/01 12:56:15;;;;;;;26.98;12.63;;;;;;;;;;5035905;28;20037;-68
2022/12/01 12:59:02;;;;;;;31.65;12.63;;;;;;;;;;5051821;28;20041;-68
2022/12/01 13:01:39;;;;;;;26.52;11.80;;;;;;;;;;5035502;28;20036;-72
2022/12/01 13:04:14;;;;;;;23.08;10.65;;;;;;;;;;5052102;28;20045;-68
2022/12/01 13:06:44;;;;;;;20.55;9.95;;;;;;;;;;5035298;28;20452;-68
2022/12/01 13:09:16;;;;;;;20.45;9.82;;;;;;;;;;5032314;28;20045;-68
2022/12/01 13:11:48;;;;;;;28.13;10.95;;;;;;;;;;5032269;28;20069;-68
2022/12/01 13:14:21;;;;;;;21.60;11.10;;;;;;;;;;5052035;28;20397;-69
2022/12/01 13:16:49;;;;;;;21.30;10.88;;;;;;;;;;5035539;28;20041;-68
2022/12/01 13:19:18;;;;;;;30.60;11.70;;;;;;;;;;5051669;28;20044;-67
2022/12/01 13:21:45;;;;;;;21.13;11.00;;;;;;;;;;5035601;28;20040;-68
2022/12/01 13:24:13;;;;;;;22.27;10.45;;;;;;;;;;5035429;28;20041;-69
2022/12/01 13:26:41;;;;;;;19.27;9.57;;;;;;;;;;5051967;28;20041;-68
2022/12/01 13:29:08;;;;;;;18.40;9.77;;;;;;;;;;5051318;28;20082;-69
2022/12/01 13:31:48;;;;;;;22.52;10.98;;;;;;;;;;5035331;28;20040;-68
2022/12/01 13:34:19;;;;;;;22.75;10.77;;;;;;;;;;5034971;28;20401;-68
2022/12/01 13:36:50;;;;;;;22.25;10.35;;;;;;;;;;5051972;28;20040;-68
2022/12/01 13:39:21;;;;;;;29.27;11.88;;;;;;;;;;5051420;28;20436;-69
2022/12/01 13:41:57;;;;;;;23.42;10.35;;;;;;;;;;5051683;28;20068;-69
2022/12/01 13:44:23;;;;;;;24.15;11.30;;;;;;;;;;5035149;28;20060;-69
2022/12/01 13:46:52;;;;;;;26.67;11.52;;;;;;;;;;5035155;28;20037;-68
2022/12/01 13:49:33;;;;;;;26.55;10.90;;;;;;;;;;5051242;28;20049;-68
2022/12/01 13:52:15;;;;;;;26.55;12.38;;;;;;;;;;5051562;28;20120;-68
2022/12/01 13:54:58;;;;;;;29.45;12.07;;;;;;;;;;5037465;28;20080;-68
2022/12/01 13:57:31;;;;;;;23.08;11.23;;;;;;;;;;5054939;28;20492;-69
2022/12/01 13:59:58;;;;;;;25.48;12.02;;;;;;;;;;5055234;28;20047;-69
2022/12/01 14:02:25;;;;;;;27.10;12.43;;;;;;;;;;5038397;28;20045;-69
2022/12/01 14:04:51;;;;;;;28.42;13.05;;;;;;;;;;5038618;28;20480;-69
2022/12/01 14:07:18;;;;;;;27.77;13.20;;;;;;;;;;5055031;28;20049;-69
2022/12/01 14:09:44;;;;;;;28.98;13.30;;;;;;;;;;5038464;28;20098;-69
2022/12/01 14:12:10;;;;;;;27.33;12.73;;;;;;;;;;5038498;28;20108;-68
2022/12/01 14:14:39;;;;;;;31.23;13.32;;;;;;;;;;5038150;28;20102;-69
2022/12/01 14:17:09;;;;;;;27.17;13.20;;;;;;;;;;5054973;28;20080;-68
2022/12/01 14:19:50;;;;;;;27.05;12.40;;;;;;;;;;5038049;28;20143;-69
2022/12/01 14:22:29;;;;;;;29.25;13.32;;;;;;;;;;5054544;28;20107;-68
2022/12/01 14:24:56;;;;;;;34.85;14.65;;;;;;;;;;5034618;28;20489;-68
2022/12/01 14:27:36;;;;;;;30.70;13.95;;;;;;;;;;5039118;28;20055;-68